Accueil
METAR-TAF:

METAR-TAF

Aéroports :

Saint-Nazaire, France

Aéroport de Saint-Nazaire - Montoir

latitude: 47-19N, longitude: 002-10W, altitude: 3 m

Observation

Le bulletin a été fait il y a 31 minutes, à 02:30 UTC
Vent 3 kt de nord/nord-ouest
Température 15°C
Humidité 88%
Pression 1018 hPa
Visibilité 10 km ou plus
pas de nuages en-dessous de 1500 mètres et pas de cumulonimbus.

METAR: LFRZ 240230Z AUTO 34003KT CAVOK 15/13 Q1018 NOSIG

Heure: 05:01 (03:01 UTC)

Prévision

Le bulletin a été fait il y a 4 heures et 1 minutes, à 23:00 UTC
Prévision valable du 24 à 00 UTC au 24 à 24 UTC
Vent 3 kt de direction variable
Visibilité 10 km ou plus
pas de nuages en-dessous de 1500 mètres et pas de cumulonimbus.
Evoluant progressivement
du 24 à 02 UTC au 24 à 05 UTC
Vent 10 kt de nord/nord-est

TAF: LFRZ 232300Z 2400/2424 VRB03KT CAVOK BECMG 2402/2405 02010KT

Observations et prévisions météorologiques de plus de 4000 aéroports (messages METAR et TAF).

Les stations disponibles sont représentées par des disques jaunes et rouges sur la carte.

Passer la souris dessus pour voir le nom de la station.

Cliquer dessus pour voir les observations et prévisions météorologiques.

Pour changer de carte: cliquez sur les boutons verts avec une croix noire pour zoomer, sur le bouton vert avec un tiret pour effectuer un zoom arrière, ou sur les flèches vertes pour les cartes adjacentes.


METAR-TAF: